Time;durP1;ratioP1;P1;durP2;ratioP2;P2;SDS_P1;SDS_P2;PMS_P1;PMS_P2;Temp;Humidity;BMP_temperature;BMP_pressure;BME280_temperature;BME280_humidity;BME280_pressure;Samples;Min_cycle;Max_cycle;Signal;HPM_P1;HPM_P2
2021/10/11 00:00:19;;;;;;;19.90;8.13;;;;;;;9.06;100.00;102179.75;1633691;86;21040;-85
2021/10/11 00:02:45;;;;;;;25.27;9.03;;;;;;;8.98;100.00;102178.62;1633601;86;21149;-85
2021/10/11 00:05:11;;;;;;;21.85;7.67;;;;;;;8.92;100.00;102177.59;1633439;86;20959;-85
2021/10/11 00:07:38;;;;;;;24.92;8.10;;;;;;;8.90;100.00;102177.48;1633410;86;21088;-84
2021/10/11 00:10:06;;;;;;;24.43;9.08;;;;;;;8.87;100.00;102178.73;1633594;86;21087;-86
2021/10/11 00:12:32;;;;;;;24.37;8.65;;;;;;;8.83;100.00;102172.95;1633586;86;21109;-85
2021/10/11 00:14:58;;;;;;;21.87;7.60;;;;;;;8.85;100.00;102172.72;1633589;86;21037;-85
2021/10/11 00:17:24;;;;;;;30.57;8.38;;;;;;;8.85;100.00;102172.72;1635328;87;21689;-84
2021/10/11 00:19:51;;;;;;;24.25;8.55;;;;;;;8.86;100.00;102169.84;1635607;87;21490;-85
2021/10/11 00:22:21;;;;;;;25.80;8.25;;;;;;;8.86;100.00;102167.16;1635533;87;21091;-85
2021/10/11 00:24:47;;;;;;;20.77;7.33;;;;;;;8.85;100.00;102163.31;1635704;87;20990;-86
2021/10/11 00:27:13;;;;;;;26.25;7.55;;;;;;;8.82;100.00;102167.27;1635585;87;22050;-84
2021/10/11 00:29:40;;;;;;;19.80;7.75;;;;;;;8.81;100.00;102163.44;1635732;87;21043;-84
2021/10/11 00:32:08;;;;;;;16.65;7.58;;;;;;;8.80;100.00;102159.11;1631049;87;21031;-84
2021/10/11 00:34:37;;;;;;;19.27;7.42;;;;;;;8.77;100.00;102158.18;1635355;87;21563;-85
2021/10/11 00:37:05;;;;;;;19.70;7.30;;;;;;;8.76;100.00;102156.51;1635593;87;21595;-85
2021/10/11 00:39:32;;;;;;;18.90;6.90;;;;;;;8.74;100.00;102151.88;1635480;87;21204;-85
2021/10/11 00:41:58;;;;;;;21.77;7.90;;;;;;;8.75;100.00;102155.69;1635739;87;21005;-85
2021/10/11 00:44:24;;;;;;;17.90;7.62;;;;;;;8.74;100.00;102149.20;1635577;87;21553;-85
2021/10/11 00:46:50;;;;;;;17.30;7.85;;;;;;;8.73;100.00;102153.72;1635601;87;20888;-85
2021/10/11 00:49:15;;;;;;;19.05;6.70;;;;;;;8.72;100.00;102148.05;1635589;87;21008;-85
2021/10/11 00:51:43;;;;;;;19.45;7.55;;;;;;;8.72;100.00;102143.19;1635678;87;21933;-85
2021/10/11 00:54:10;;;;;;;17.73;7.53;;;;;;;8.71;100.00;102143.72;1635240;87;21063;-85
2021/10/11 00:56:36;;;;;;;20.72;7.60;;;;;;;8.73;100.00;102139.45;1635316;87;21162;-84
2021/10/11 00:59:03;;;;;;;21.45;7.33;;;;;;;8.73;100.00;102139.45;1635696;87;21741;-84
2021/10/11 01:01:29;;;;;;;23.47;7.67;;;;;;;8.73;100.00;102138.94;1635593;87;21678;-85
2021/10/11 01:03:55;;;;;;;18.62;7.85;;;;;;;8.72;100.00;102139.16;1635145;87;21071;-85
2021/10/11 01:06:21;;;;;;;22.05;8.53;;;;;;;8.71;100.00;102138.34;1635611;87;20996;-84
2021/10/11 01:08:49;;;;;;;19.25;7.85;;;;;;;8.70;100.00;102141.22;1635708;87;21007;-85
2021/10/11 01:11:14;;;;;;;22.82;7.58;;;;;;;8.69;100.00;102136.89;1635675;87;20990;-85
2021/10/11 01:13:40;;;;;;;18.12;7.45;;;;;;;8.68;100.00;102136.07;1635459;87;22460;-85
2021/10/11 01:16:06;;;;;;;20.37;8.15;;;;;;;8.68;100.00;102132.04;1635579;87;21143;-85
2021/10/11 01:18:32;;;;;;;16.60;7.00;;;;;;;8.67;100.00;102127.67;1635191;87;20928;-85
2021/10/11 01:20:58;;;;;;;18.40;7.45;;;;;;;8.67;100.00;102127.67;1635205;87;21099;-85
2021/10/11 01:23:25;;;;;;;18.95;7.47;;;;;;;8.64;100.00;102122.20;1635349;87;20969;-85
2021/10/11 01:25:54;;;;;;;19.42;7.17;;;;;;;8.61;100.00;102119.94;1635276;87;21096;-84
2021/10/11 01:28:22;;;;;;;17.32;7.15;;;;;;;8.59;100.00;102118.52;1635545;87;21347;-86
2021/10/11 01:30:48;;;;;;;27.48;8.20;;;;;;;8.57;100.00;102114.68;1635215;87;21097;-85
2021/10/11 01:33:14;;;;;;;20.50;7.50;;;;;;;8.55;100.00;102114.05;1635420;87;21056;-85
2021/10/11 01:35:40;;;;;;;21.62;7.75;;;;;;;8.53;100.00;102113.95;1635413;87;21076;-84
2021/10/11 01:38:06;;;;;;;22.02;7.40;;;;;;;8.51;100.00;102113.36;1607134;87;20932;-84
2021/10/11 01:40:33;;;;;;;24.12;7.90;;;;;;;8.48;100.00;102108.39;1635377;87;21767;-84
2021/10/11 01:42:59;;;;;;;22.30;8.08;;;;;;;8.46;100.00;102113.96;1635528;87;21091;-85
2021/10/11 01:45:25;;;;;;;18.87;7.55;;;;;;;8.45;100.00;102110.98;1635242;87;20913;-85
2021/10/11 01:47:51;;;;;;;19.45;7.62;;;;;;;8.44;100.00;102109.83;1635514;87;20988;-85
2021/10/11 01:50:16;;;;;;;19.00;7.40;;;;;;;8.44;100.00;102104.45;1635529;87;20917;-84
2021/10/11 01:52:42;;;;;;;23.15;7.05;;;;;;;8.37;100.00;102094.52;1635505;87;21043;-85
2021/10/11 01:55:09;;;;;;;21.12;7.70;;;;;;;8.40;100.00;102109.42;1635577;87;20909;-85
2021/10/11 01:57:36;;;;;;;24.70;7.87;;;;;;;8.37;100.00;102099.88;1635446;86;21067;-85
2021/10/11 02:00:06;;;;;;;20.95;7.55;;;;;;;8.33;100.00;102095.97;1632674;87;21028;-86
2021/10/11 02:02:32;;;;;;;24.85;10.85;;;;;;;8.31;100.00;102094.00;1635786;87;21106;-86
2021/10/11 02:04:58;;;;;;;27.87;12.13;;;;;;;8.31;100.00;102095.34;1635673;87;21977;-85
2021/10/11 02:07:24;;;;;;;20.02;7.87;;;;;;;8.30;100.00;102096.91;1635511;87;20893;-85
2021/10/11 02:09:50;;;;;;;22.00;8.83;;;;;;;8.26;100.00;102095.13;1635714;87;21823;-85
2021/10/11 02:12:16;;;;;;;20.82;8.73;;;;;;;8.23;100.00;102098.23;1635600;87;20885;-85
2021/10/11 02:14:43;;;;;;;18.60;7.78;;;;;;;8.19;100.00;102095.66;1635520;86;21114;-85
2021/10/11 02:17:09;;;;;;;19.98;7.45;;;;;;;8.13;100.00;102091.94;1606894;87;21253;-85
2021/10/11 02:19:34;;;;;;;26.37;8.15;;;;;;;8.11;100.00;102085.13;1635524;87;21029;-85
2021/10/11 02:22:01;;;;;;;21.93;7.58;;;;;;;8.09;100.00;102084.49;1635580;87;21014;-85
2021/10/11 02:24:26;;;;;;;23.67;7.45;;;;;;;8.08;100.00;102090.91;1635472;87;21044;-85
2021/10/11 02:26:52;;;;;;;22.45;8.05;;;;;;;8.03;100.00;102083.98;1635691;87;21111;-85
2021/10/11 02:29:19;;;;;;;17.23;6.87;;;;;;;8.00;100.00;102083.90;1635350;87;21199;-85
2021/10/11 02:31:45;;;;;;;17.12;7.90;;;;;;;7.98;100.00;102079.24;1635496;87;21084;-85
2021/10/11 02:34:11;;;;;;;18.65;7.28;;;;;;;7.95;100.00;102085.02;1635574;87;21190;-85
2021/10/11 02:36:36;;;;;;;21.73;7.50;;;;;;;7.95;100.00;102081.00;1635683;87;21097;-85
2021/10/11 02:39:03;;;;;;;22.15;7.95;;;;;;;7.94;100.00;102084.20;1635479;87;21079;-84
2021/10/11 02:41:29;;;;;;;19.35;7.28;;;;;;;7.93;100.00;102083.05;1635548;87;21600;-84
2021/10/11 02:43:55;;;;;;;18.98;7.10;;;;;;;7.91;100.00;102081.08;1635430;87;21095;-84
2021/10/11 02:46:21;;;;;;;21.62;8.25;;;;;;;7.87;100.00;102081.19;1635546;87;21009;-84
2021/10/11 02:48:47;;;;;;;21.23;7.95;;;;;;;7.84;100.00;102073.55;1635584;87;21559;-84
2021/10/11 02:51:13;;;;;;;21.45;7.35;;;;;;;7.80;100.00;102069.64;1635580;87;20925;-84
2021/10/11 02:53:39;;;;;;;26.35;8.08;;;;;;;7.74;100.00;102065.91;1635598;87;21056;-84
2021/10/11 02:56:04;;;;;;;18.85;7.30;;;;;;;7.68;100.00;102060.02;1635595;87;21711;-84
2021/10/11 02:58:30;;;;;;;18.32;7.17;;;;;;;7.61;100.00;102058.65;1635213;87;20913;-84
2021/10/11 03:00:56;;;;;;;20.48;6.85;;;;;;;7.56;100.00;102057.11;1635575;87;20912;-84
2021/10/11 03:03:22;;;;;;;18.73;7.15;;;;;;;7.50;100.00;102063.30;1635581;87;21850;-85
2021/10/11 03:05:48;;;;;;;20.62;8.03;;;;;;;7.43;100.00;102059.23;1635619;86;21316;-84
2021/10/11 03:08:14;;;;;;;18.17;7.20;;;;;;;7.37;100.00;102053.34;1635103;87;21015;-83
2021/10/11 03:10:39;;;;;;;23.52;7.35;;;;;;;7.33;100.00;102049.94;1635653;87;20913;-84
2021/10/11 03:13:05;;;;;;;19.80;8.00;;;;;;;7.30;100.00;102049.83;1635430;87;21109;-84
2021/10/11 03:15:31;;;;;;;18.90;7.30;;;;;;;7.30;100.00;102049.00;1635375;87;22264;-84
2021/10/11 03:17:57;;;;;;;23.42;9.10;;;;;;;7.30;100.00;102051.16;1635365;87;21990;-84
2021/10/11 03:20:23;;;;;;;23.22;8.05;;;;;;;7.25;100.00;102050.41;1635673;87;20873;-84
2021/10/11 03:22:48;;;;;;;21.68;8.53;;;;;;;7.23;100.00;102044.94;1635437;86;21004;-84
2021/10/11 03:25:14;;;;;;;25.70;8.65;;;;;;;7.16;100.00;102040.08;1635536;87;21555;-84
2021/10/11 03:27:40;;;;;;;25.27;8.13;;;;;;;7.08;100.00;102031.69;1635360;87;20945;-84
2021/10/11 03:30:07;;;;;;;20.65;7.67;;;;;;;7.00;100.00;102028.70;1635713;87;21133;-85
2021/10/11 03:32:32;;;;;;;20.08;8.30;;;;;;;6.94;100.00;102032.66;1635571;87;21116;-85
2021/10/11 03:34:58;;;;;;;21.65;8.38;;;;;;;6.91;100.00;102033.92;1633311;87;20885;-85
2021/10/11 03:37:24;;;;;;;20.57;7.75;;;;;;;6.89;100.00;102024.42;1635469;87;21016;-85
2021/10/11 03:39:50;;;;;;;20.65;8.25;;;;;;;6.86;100.00;102020.28;1635562;87;20908;-85
2021/10/11 03:42:16;;;;;;;26.68;8.60;;;;;;;6.86;100.00;102018.12;1635240;87;21182;-85
2021/10/11 03:44:42;;;;;;;24.30;8.45;;;;;;;6.83;100.00;102017.48;1635410;87;20889;-85
2021/10/11 03:47:08;;;;;;;23.30;7.95;;;;;;;6.84;100.00;102018.31;1635631;87;20980;-85
2021/10/11 03:49:34;;;;;;;22.55;7.50;;;;;;;6.85;100.00;102023.15;1635435;87;20895;-85
2021/10/11 03:52:00;;;;;;;19.30;8.10;;;;;;;6.87;100.00;102030.48;1625862;87;21043;-85
2021/10/11 03:54:25;;;;;;;21.75;7.97;;;;;;;6.88;100.00;102024.09;1635434;87;21134;-84
2021/10/11 03:56:51;;;;;;;18.73;7.60;;;;;;;6.86;100.00;102022.14;1635071;87;20980;-84
2021/10/11 03:59:17;;;;;;;21.73;7.95;;;;;;;6.83;100.00;102028.73;1635226;87;20988;-85
2021/10/11 04:01:43;;;;;;;19.07;7.62;;;;;;;6.79;100.00;102028.79;1635520;87;20964;-84
2021/10/11 04:04:09;;;;;;;27.98;8.43;;;;;;;6.76;100.00;102031.34;1635402;87;20977;-85
2021/10/11 04:06:35;;;;;;;25.00;7.45;;;;;;;6.73;100.00;102026.39;1635641;87;21209;-84
2021/10/11 04:09:01;;;;;;;19.77;7.75;;;;;;;6.73;100.00;102029.59;1635409;87;20917;-85
2021/10/11 04:11:28;;;;;;;18.55;7.30;;;;;;;6.73;100.00;102021.55;1635410;87;21706;-85
2021/10/11 04:13:54;;;;;;;23.50;7.92;;;;;;;6.75;100.00;102019.51;1635328;86;21488;-85
2021/10/11 04:16:20;;;;;;;20.55;7.62;;;;;;;6.73;100.00;102025.56;1635533;87;21133;-85
2021/10/11 04:18:46;;;;;;;22.00;8.15;;;;;;;6.65;100.00;102016.35;1635097;87;21515;-85
2021/10/11 04:21:12;;;;;;;18.65;8.10;;;;;;;6.60;100.00;102015.11;1635669;87;20987;-85
2021/10/11 04:23:37;;;;;;;24.47;8.08;;;;;;;6.57;100.00;102019.52;1635207;87;20937;-85
2021/10/11 04:26:04;;;;;;;20.45;7.40;;;;;;;6.57;100.00;102011.48;1635435;87;20891;-85
2021/10/11 04:28:30;;;;;;;20.20;7.12;;;;;;;6.62;100.00;102012.73;1635440;87;20987;-85
2021/10/11 04:30:55;;;;;;;21.27;7.37;;;;;;;6.62;100.00;102016.27;1635402;87;21131;-84
2021/10/11 04:33:23;;;;;;;22.60;7.53;;;;;;;6.64;100.00;102018.73;1635412;87;21055;-85
2021/10/11 04:35:49;;;;;;;18.40;7.85;;;;;;;6.67;100.00;102011.63;1635515;87;20977;-85
2021/10/11 04:38:15;;;;;;;21.37;8.43;;;;;;;6.66;100.00;102005.45;1635727;87;21095;-85
2021/10/11 04:40:42;;;;;;;29.25;12.50;;;;;;;6.75;100.00;102006.11;1635536;86;21134;-85
2021/10/11 04:43:08;;;;;;;40.38;15.23;;;;;;;6.92;100.00;102003.41;1635706;87;21040;-85
2021/10/11 04:45:34;;;;;;;38.20;16.05;;;;;;;7.64;100.00;102007.27;1635422;87;21015;-85
2021/10/11 04:48:10;;;;;;;40.38;16.45;;;;;;;8.25;100.00;102002.18;1635656;86;21133;-85
2021/10/11 04:50:36;;;;;;;40.10;16.17;;;;;;;8.55;100.00;101999.86;1635319;87;21131;-85
2021/10/11 04:53:04;;;;;;;41.42;14.63;;;;;;;8.51;100.00;101998.64;1635260;87;21027;-84
2021/10/11 04:55:33;;;;;;;47.00;17.25;;;;;;;8.45;100.00;101995.46;1635694;87;21072;-85
2021/10/11 04:58:00;;;;;;;50.60;17.60;;;;;;;8.44;100.00;101999.69;1635015;87;21063;-85
2021/10/11 05:00:27;;;;;;;66.90;21.90;;;;;;;8.46;100.00;101996.28;1635220;87;21056;-86
2021/10/11 05:02:53;;;;;;;95.47;37.78;;;;;;;8.47;100.00;101994.74;1635735;87;21031;-85
2021/10/11 05:05:19;;;;;;;104.45;38.05;;;;;;;8.47;100.00;101992.05;1635418;87;21017;-85
2021/10/11 05:07:45;;;;;;;102.85;35.78;;;;;;;8.49;100.00;101991.30;1635052;87;21705;-84
2021/10/11 05:10:11;;;;;;;109.05;32.10;;;;;;;8.47;100.00;101989.86;1635338;87;21240;-85
2021/10/11 05:12:37;;;;;;;84.32;28.75;;;;;;;8.49;100.00;101989.14;1635478;87;21640;-84
2021/10/11 05:15:03;;;;;;;75.15;25.97;;;;;;;8.58;100.00;101986.00;1635441;87;20926;-85
2021/10/11 05:17:29;;;;;;;66.85;22.75;;;;;;;8.77;100.00;101988.84;1634192;87;21151;-85
2021/10/11 05:19:55;;;;;;;68.92;21.07;;;;;;;8.91;100.00;101984.22;1654245;85;21138;-85
2021/10/11 05:22:21;;;;;;;70.52;20.27;;;;;;;9.15;100.00;101988.02;1654097;85;20993;-85
2021/10/11 05:24:47;;;;;;;54.75;20.40;;;;;;;9.42;100.00;101987.36;1630556;88;20917;-85
2021/10/11 05:27:13;;;;;;;61.33;21.75;;;;;;;9.56;100.00;101980.84;1654374;85;21561;-85
2021/10/11 05:29:39;;;;;;;85.60;26.02;;;;;;;9.68;100.00;101984.47;1630752;88;21036;-85
2021/10/11 05:32:07;;;;;;;60.63;18.52;;;;;;;9.77;100.00;101981.80;1654580;85;21091;-85
2021/10/11 05:34:33;;;;;;;49.77;14.43;;;;;;;9.82;100.00;101981.12;1630445;88;21013;-85
2021/10/11 05:37:00;;;;;;;34.92;11.83;;;;;;;9.91;100.00;101977.12;1654557;85;21090;-85
2021/10/11 05:39:26;;;;;;;29.75;10.68;;;;;;;9.93;100.00;101975.55;1630764;88;21170;-85
2021/10/11 05:41:52;;;;;;;28.38;10.70;;;;;;;10.01;100.00;101972.58;1654413;85;21069;-85
2021/10/11 05:44:18;;;;;;;30.20;10.28;;;;;;;10.05;100.00;101974.30;1630652;88;21132;-85
2021/10/11 05:46:44;;;;;;;22.80;8.88;;;;;;;10.12;100.00;101974.55;1654341;85;20848;-85
2021/10/11 05:49:11;;;;;;;22.73;8.15;;;;;;;10.21;100.00;101975.08;1627844;88;21036;-85
2021/10/11 05:51:37;;;;;;;17.70;7.30;;;;;;;10.33;100.00;101978.70;1629907;86;21594;-85
2021/10/11 05:54:03;;;;;;;26.10;7.15;;;;;;;10.39;99.57;101979.69;1630688;88;21084;-85
2021/10/11 05:56:29;;;;;;;23.92;7.28;;;;;;;10.43;100.00;101985.73;1654477;85;21167;-86
2021/10/11 05:58:55;;;;;;;18.82;6.97;;;;;;;10.49;98.53;101984.54;1630652;88;21638;-85
2021/10/11 06:01:21;;;;;;;20.77;6.85;;;;;;;10.53;97.05;101988.42;1654419;85;20923;-84
2021/10/11 06:03:49;;;;;;;25.52;7.53;;;;;;;10.56;97.04;101984.78;1630388;88;21005;-85
2021/10/11 06:06:15;;;;;;;17.92;7.47;;;;;;;10.62;95.83;101980.36;1654444;85;21000;-85
2021/10/11 06:11:20;;;;;;;20.65;6.60;;;;;;;10.91;93.82;101983.62;1622986;88;21095;-85
2021/10/11 06:13:47;;;;;;;18.50;7.37;;;;;;;11.04;91.07;101975.05;1620899;88;21594;-86
2021/10/11 06:16:13;;;;;;;31.68;10.65;;;;;;;11.13;88.28;101975.02;1623085;88;21106;-86
2021/10/11 06:18:40;;;;;;;21.90;7.50;;;;;;;11.27;86.38;101971.61;1624123;88;21190;-85
2021/10/11 06:21:06;;;;;;;23.05;6.78;;;;;;;11.51;84.04;101977.88;1604219;88;21475;-86
2021/10/11 06:23:33;;;;;;;19.80;7.92;;;;;;;11.65;81.39;101969.86;1600447;88;21039;-85
2021/10/11 06:25:59;;;;;;;27.67;8.75;;;;;;;11.79;81.02;101968.59;1626079;88;21013;-86
2021/10/11 06:28:25;;;;;;;24.52;8.58;;;;;;;12.04;81.46;101969.73;1622131;88;21119;-86
2021/10/11 06:30:51;;;;;;;23.70;8.73;;;;;;;12.19;74.02;101972.48;1604157;88;21094;-85
2021/10/11 06:33:21;;;;;;;33.63;10.93;;;;;;;12.20;71.26;101968.17;1625748;88;21170;-85
2021/10/11 06:35:52;;;;;;;27.87;11.00;;;;;;;12.31;67.03;101961.66;1625566;88;21058;-86
2021/10/11 06:38:18;;;;;;;40.25;10.63;;;;;;;12.40;64.62;101964.28;1625742;88;21130;-85
2021/10/11 06:40:48;;;;;;;35.30;11.48;;;;;;;12.36;63.73;101962.59;1625948;88;21071;-86
2021/10/11 06:43:15;;;;;;;28.32;10.30;;;;;;;12.28;62.68;101959.72;1625332;88;21157;-85
2021/10/11 06:45:41;;;;;;;29.07;10.75;;;;;;;12.34;63.73;101962.00;1625747;88;21282;-86
2021/10/11 06:48:07;;;;;;;31.73;12.03;;;;;;;12.47;62.96;101956.34;1604247;88;21094;-84
2021/10/11 06:50:33;;;;;;;29.80;10.68;;;;;;;12.52;61.02;101956.14;1626239;88;21016;-83
2021/10/11 06:52:59;;;;;;;26.77;11.25;;;;;;;12.39;61.04;101945.08;1625996;88;21559;-82
2021/10/11 06:55:25;;;;;;;34.63;12.68;;;;;;;12.39;61.04;101945.08;1625894;88;21617;-83
2021/10/11 06:57:51;;;;;;;29.85;11.85;;;;;;;12.52;59.51;101957.50;1625779;88;21325;-83
2021/10/11 07:00:28;;;;;;;32.03;11.80;;;;;;;12.48;59.22;101957.16;1625514;88;20908;-83
2021/10/11 07:02:55;;;;;;;38.35;12.43;;;;;;;12.55;59.87;101955.13;1625531;88;21098;-82
2021/10/11 07:06:12;;;;;;;34.75;13.78;;;;;;;12.73;59.37;101950.92;1622641;88;21079;-85
2021/10/11 07:08:44;;;;;;;;;;;;;;;;;;;;;
2021/10/11 07:11:16;;;;;;;33.10;11.15;;;;;;;13.05;59.03;101947.70;1594374;88;21484;-84
2021/10/11 07:13:42;;;;;;;32.55;10.88;;;;;;;13.07;57.07;101946.13;1542605;91;21228;-83
2021/10/11 07:18:57;;;;;;;29.77;10.85;;;;;;;13.16;56.38;101935.19;1485359;94;21062;-85
2021/10/11 07:21:23;;;;;;;39.33;10.97;;;;;;;13.29;55.68;101929.48;1498549;93;21099;-88
2021/10/11 07:23:49;;;;;;;29.95;11.33;;;;;;;13.31;55.09;101923.30;1499000;93;21363;-86
2021/10/11 07:26:25;;;;;;;;;;;;;;;;;;;;;
2021/10/11 07:28:43;;;;;;;32.03;10.35;;;;;;;13.41;54.61;101917.22;1517663;93;21100;-86
2021/10/11 07:31:09;;;;;;;31.60;11.10;;;;;;;13.50;54.35;101901.37;1518112;92;21085;-87
2021/10/11 07:33:35;;;;;;;27.98;10.72;;;;;;;13.66;53.09;101910.04;1517884;92;21552;-87
2021/10/11 07:36:03;;;;;;;28.42;11.05;;;;;;;13.75;53.48;101910.44;1518003;93;20997;-84
2021/10/11 07:38:32;;;;;;;30.32;11.43;;;;;;;13.90;53.06;101906.59;1481441;95;20991;-83
2021/10/11 07:40:59;;;;;;;31.30;11.97;;;;;;;13.97;52.71;101897.77;1481489;95;21137;-83
2021/10/11 07:43:27;;;;;;;34.98;11.95;;;;;;;13.98;51.98;101903.45;1481216;95;21583;-83
2021/10/11 07:46:18;;;;;;;;;;;;;;;;;;;;;
2021/10/11 07:49:07;;;;;;;;;;;;;;;;;;;;;
2021/10/11 07:51:30;;;;;;;28.52;11.00;;;;;;;14.16;50.37;101893.39;1452222;96;21588;-84
2021/10/11 07:53:56;;;;;;;36.50;10.60;;;;;;;14.10;49.91;101893.86;1459137;96;21219;-84
2021/10/11 07:56:31;;;;;;;33.78;10.13;;;;;;;14.10;49.91;101893.86;1458827;96;21604;-83
2021/10/11 07:59:17;;;;;;;26.55;10.13;;;;;;;13.98;49.54;101896.68;1459065;96;21315;-83
2021/10/11 08:01:49;;;;;;;27.82;10.00;;;;;;;13.92;49.82;101892.27;1457546;97;21586;-84
2021/10/11 08:04:26;;;;;;;29.52;9.73;;;;;;;13.94;50.03;101885.22;1441546;98;21127;-84
2021/10/11 08:07:15;;;;;;;34.35;10.35;;;;;;;13.95;49.65;101883.63;1322613;105;21387;-83
2021/10/11 08:09:47;;;;;;;28.65;9.43;;;;;;;13.81;49.73;101872.33;1336584;105;21240;-85
2021/10/11 08:12:39;;;;;;;31.68;11.10;;;;;;;13.89;49.22;101887.34;1336065;105;21175;-83
2021/10/11 08:15:17;;;;;;;33.15;10.38;;;;;;;13.90;49.82;101885.45;1322010;106;21963;-83
2021/10/11 08:21:02;;;;;;;28.55;10.75;;;;;;;13.80;49.18;101882.89;1305073;107;21232;-85
2021/10/11 08:23:36;;;;;;;39.63;12.45;;;;;;;13.76;49.49;101879.55;1304551;108;21659;-82
2021/10/11 08:26:06;;;;;;;57.93;11.27;;;;;;;13.73;48.97;101884.13;1313037;108;21165;-83
2021/10/11 08:28:44;;;;;;;55.50;16.95;;;;;;;13.75;49.08;101881.99;1319468;108;21202;-82
2021/10/11 08:31:42;;;;;;;;;;;;;;;;;;;;;
2021/10/11 08:39:22;;;;;;;37.67;12.35;;;;;;;13.82;49.07;101885.33;1334232;104;21276;-83
2021/10/11 08:42:00;;;;;;;48.17;13.98;;;;;;;13.88;49.32;101878.09;1314031;107;21172;-80
2021/10/11 08:44:49;;;;;;;;;;;;;;;;;;;;;
2021/10/11 08:51:19;;;;;;;31.40;11.15;;;;;;;14.00;49.30;101874.22;;;;
2021/10/11 09:04:57;;;;;;;32.80;11.33;;;;;;;14.13;48.61;101862.72;1290528;109;21191;-84
2021/10/11 09:07:36;;;;;;;35.43;11.73;;;;;;;14.25;48.77;101848.48;1272958;111;21431;-83
2021/10/11 09:10:03;;;;;;;29.42;11.25;;;;;;;14.36;48.65;101848.89;1276985;110;21217;-82
2021/10/11 09:12:34;;;;;;;29.75;10.93;;;;;;;14.42;47.59;101841.09;1277381;109;26654;-83
2021/10/11 09:15:20;;;;;;;30.90;10.65;;;;;;;14.46;47.78;101834.08;1277196;109;21209;-84
2021/10/11 09:18:15;;;;;;;;;;;;;;;;;;;;;
2021/10/11 09:23:12;;;;;;;42.95;11.68;;;;;;;14.58;47.56;101829.88;1236919;113;21230;-82
2021/10/11 09:25:41;;;;;;;34.05;11.93;;;;;;;14.63;47.42;101827.77;1254321;111;21339;-83
2021/10/11 09:28:27;;;;;;;;;;;;;;;;;;;;;
2021/10/11 09:30:48;;;;;;;32.98;10.95;;;;;;;14.78;46.50;101827.91;1234942;111;21535;-83
2021/10/11 09:33:27;;;;;;;32.95;11.10;;;;;;;14.80;45.64;101823.05;1216629;115;21261;-83
2021/10/11 09:36:05;;;;;;;29.57;12.20;;;;;;;14.92;45.96;101820.17;1242711;113;21193;-83
2021/10/11 09:38:31;;;;;;;;;;;;;;;15.00;45.17;101815.63;1254657;111;21302;-84
2021/10/11 09:44:05;;;;;;;22.32;8.25;;;;;;;15.09;45.18;101811.86;1289298;109;21182;-83
2021/10/11 09:49:29;;;;;;;27.00;7.78;;;;;;;15.18;45.01;101806.26;1261207;111;21694;-82
2021/10/11 10:01:31;;;;;;;29.55;8.13;;;;;;;15.08;45.30;101790.69;1188808;116;21786;-85
2021/10/11 10:04:02;;;;;;;68.25;13.00;;;;;;;15.08;44.94;101783.09;1182287;119;21600;-86
2021/10/11 10:06:31;;;;;;;16.90;6.10;;;;;;;15.02;45.09;101780.88;1186469;118;21297;-88
2021/10/11 10:09:10;;;;;;;22.32;5.35;;;;;;;15.07;45.55;101776.03;1200999;117;21146;-86
2021/10/11 10:11:36;;;;;;;16.27;6.00;;;;;;;15.09;45.58;101775.21;1200566;118;21329;-85
2021/10/11 10:19:10;;;;;;;14.65;5.17;;;;;;;15.15;45.23;101766.05;1178573;118;21387;-87
2021/10/11 10:21:40;;;;;;;15.38;4.60;;;;;;;15.23;45.03;101756.03;1148430;122;21441;-90
2021/10/11 10:24:09;;;;;;;20.68;5.53;;;;;;;15.26;44.50;101752.79;1149183;122;21725;-84
2021/10/11 10:26:41;;;;;;;19.95;4.60;;;;;;;15.24;44.94;101732.43;1147137;123;21849;-88
2021/10/11 10:29:24;;;;;;;21.35;5.17;;;;;;;15.48;44.24;101740.97;1183765;119;21725;-85
2021/10/11 10:31:53;;;;;;;18.27;5.85;;;;;;;15.64;44.23;101744.02;1201072;117;21284;-87
2021/10/11 10:34:28;;;;;;;15.00;5.55;;;;;;;15.72;43.73;101740.83;1190668;119;21275;-88
2021/10/11 10:37:14;;;;;;;16.90;5.90;;;;;;;15.77;43.67;101734.06;1190640;119;22562;-86
2021/10/11 10:39:52;;;;;;;15.88;6.12;;;;;;;15.87;43.92;101724.56;1193564;114;21211;-88
2021/10/11 10:42:28;;;;;;;17.75;5.45;;;;;;;16.15;44.43;101726.55;1233934;114;21127;-86
2021/10/11 10:45:00;;;;;;;12.20;4.60;;;;;;;16.25;43.11;101723.84;1238005;110;21150;-88
2021/10/11 10:47:48;;;;;;;;;;;;;;;;;;;;;
2021/10/11 10:50:16;;;;;;;14.63;5.37;;;;;;;16.38;42.89;101717.58;1221846;115;21203;-87
2021/10/11 10:52:52;;;;;;;18.73;5.12;;;;;;;16.45;42.51;101712.16;1222202;116;21749;-88
2021/10/11 10:55:21;;;;;;;22.05;5.78;;;;;;;16.44;42.81;101705.09;1193310;118;21281;-87
2021/10/11 10:57:50;;;;;;;13.75;5.80;;;;;;;16.48;42.24;101714.33;1193187;118;21230;-87
2021/10/11 11:00:20;;;;;;;27.98;6.17;;;;;;;16.50;42.52;101712.69;1176893;120;21318;-88
2021/10/11 11:02:59;;;;;;;19.50;6.30;;;;;;;16.42;41.76;101709.98;1175046;120;21154;-88
2021/10/11 11:05:29;;;;;;;17.25;6.47;;;;;;;16.21;42.46;101698.27;1157130;119;21776;-87
2021/10/11 11:07:56;;;;;;;16.75;5.40;;;;;;;16.16;42.39;101694.18;1186509;117;21420;-89
2021/10/11 11:10:38;;;;;;;22.55;5.75;;;;;;;16.21;42.47;101693.38;1188018;117;21261;-89
2021/10/11 11:13:17;;;;;;;10.05;5.55;;;;;;;16.18;42.51;101683.86;1219484;114;22395;-89
2021/10/11 11:15:53;;;;;;;15.35;5.03;;;;;;;16.12;42.59;101690.38;1228292;115;21231;-89
2021/10/11 11:18:25;;;;;;;17.27;5.72;;;;;;;16.13;43.04;101681.13;1208821;116;21601;-88
2021/10/11 11:21:02;;;;;;;16.93;5.67;;;;;;;16.17;42.81;101678.67;1231920;115;21260;-89
2021/10/11 11:26:08;;;;;;;14.70;5.20;;;;;;;16.29;43.16;101682.75;1221747;117;21188;-88
2021/10/11 11:28:36;;;;;;;12.37;5.75;;;;;;;16.29;43.47;101677.31;1211750;118;21193;-88
2021/10/11 11:31:16;;;;;;;14.45;5.53;;;;;;;16.29;43.12;101676.50;1206534;118;21287;-86
2021/10/11 11:33:49;;;;;;;13.43;5.05;;;;;;;16.25;43.38;101674.06;1164280;119;21272;-86
2021/10/11 11:36:23;;;;;;;15.85;6.00;;;;;;;16.26;43.75;101670.24;1194649;117;21179;-88
2021/10/11 11:38:49;;;;;;;14.70;5.25;;;;;;;16.24;44.14;101673.80;1223861;115;21286;-86
2021/10/11 11:41:15;;;;;;;11.80;5.03;;;;;;;16.28;44.75;101672.16;1225047;115;21878;-87
2021/10/11 11:43:42;;;;;;;16.35;5.40;;;;;;;16.31;44.60;101668.89;1225711;115;21127;-82
2021/10/11 11:46:15;;;;;;;16.32;5.67;;;;;;;16.40;44.33;101675.97;1233216;114;21691;-81
2021/10/11 11:48:43;;;;;;;15.72;5.60;;;;;;;16.26;43.80;101656.64;1224791;114;21291;-86
2021/10/11 11:51:19;;;;;;;20.37;5.58;;;;;;;16.36;44.64;101662.10;1221965;115;21256;-87
2021/10/11 11:53:45;;;;;;;9.58;4.33;;;;;;;16.39;44.41;101658.83;1264448;111;21257;-85
2021/10/11 11:56:13;;;;;;;10.45;4.92;;;;;;;16.32;45.05;101660.48;1266700;111;21726;-83
2021/10/11 11:58:46;;;;;;;14.53;5.45;;;;;;;16.29;45.09;101658.81;1266400;110;21759;-83
2021/10/11 12:01:27;;;;;;;17.20;5.60;;;;;;;16.34;44.80;101654.74;1277283;107;21110;-84
2021/10/11 12:04:09;;;;;;;13.68;5.33;;;;;;;16.33;45.25;101656.66;1300145;107;21285;-84
2021/10/11 12:06:48;;;;;;;14.78;5.30;;;;;;;16.42;45.13;101645.23;1272443;109;21207;-81
2021/10/11 12:23:01;;;;;;;17.77;6.47;;;;;;;16.40;46.47;101644.68;1263249;111;21959;-82
2021/10/11 12:25:32;;;;;;;21.15;6.30;;;;;;;16.40;45.89;101640.05;1260415;109;21760;-83
2021/10/11 12:28:15;;;;;;;12.47;4.85;;;;;;;16.22;46.59;101648.22;1273813;111;21741;-83
2021/10/11 12:30:44;;;;;;;11.57;5.22;;;;;;;16.22;46.59;101648.22;1249261;113;21241;-84
2021/10/11 12:33:13;;;;;;;13.68;5.50;;;;;;;16.12;47.15;101639.52;1267809;109;21263;-82
2021/10/11 12:35:40;;;;;;;13.55;5.37;;;;;;;16.08;47.48;101624.00;1244838;113;21276;-83
2021/10/11 12:38:11;;;;;;;14.30;4.92;;;;;;;16.08;47.48;101624.00;1245228;113;21337;-83
2021/10/11 12:40:39;;;;;;;20.82;5.55;;;;;;;16.07;47.38;101635.98;1243402;113;21295;-86